sensor_id;sensor_type;location;lat;lon;timestamp;P1;durP1;ratioP1;P2;durP2;ratioP2
79149;SDS011;68563;45.644;13.782;2024-03-23T00:55:36;2.70;;;1.95;;
79149;SDS011;68563;45.644;13.782;2024-03-23T00:58:02;3.58;;;2.00;;
79149;SDS011;68563;45.644;13.782;2024-03-23T01:00:27;3.65;;;2.40;;
79149;SDS011;68563;45.644;13.782;2024-03-23T01:02:53;3.05;;;2.13;;
79149;SDS011;68563;45.644;13.782;2024-03-23T01:05:18;2.40;;;2.00;;
79149;SDS011;68563;45.644;13.782;2024-03-23T01:07:44;4.60;;;2.08;;
79149;SDS011;68563;45.644;13.782;2024-03-23T01:10:09;2.85;;;2.08;;
79149;SDS011;68563;45.644;13.782;2024-03-23T01:12:34;3.22;;;1.98;;
79149;SDS011;68563;45.644;13.782;2024-03-23T01:15:00;2.67;;;2.08;;
79149;SDS011;68563;45.644;13.782;2024-03-23T01:17:25;5.57;;;2.00;;
79149;SDS011;68563;45.644;13.782;2024-03-23T01:19:51;2.75;;;2.10;;
79149;SDS011;68563;45.644;13.782;2024-03-23T01:22:16;2.90;;;2.00;;
79149;SDS011;68563;45.644;13.782;2024-03-23T01:24:41;3.53;;;2.10;;
79149;SDS011;68563;45.644;13.782;2024-03-23T01:27:08;3.63;;;2.38;;
79149;SDS011;68563;45.644;13.782;2024-03-23T01:29:33;3.00;;;2.20;;
79149;SDS011;68563;45.644;13.782;2024-03-23T01:31:59;3.10;;;2.15;;
79149;SDS011;68563;45.644;13.782;2024-03-23T01:34:24;3.22;;;2.20;;
79149;SDS011;68563;45.644;13.782;2024-03-23T01:36:50;3.10;;;1.95;;
79149;SDS011;68563;45.644;13.782;2024-03-23T01:39:16;4.05;;;2.60;;
79149;SDS011;68563;45.644;13.782;2024-03-23T01:41:41;4.55;;;2.45;;
79149;SDS011;68563;45.644;13.782;2024-03-23T01:44:07;3.47;;;2.50;;
79149;SDS011;68563;45.644;13.782;2024-03-23T01:46:34;5.20;;;2.85;;
79149;SDS011;68563;45.644;13.782;2024-03-23T01:49:06;4.38;;;3.03;;
79149;SDS011;68563;45.644;13.782;2024-03-23T01:51:31;4.68;;;2.70;;
79149;SDS011;68563;45.644;13.782;2024-03-23T01:53:58;3.95;;;2.30;;
79149;SDS011;68563;45.644;13.782;2024-03-23T01:56:27;2.90;;;2.10;;
79149;SDS011;68563;45.644;13.782;2024-03-23T01:58:53;3.20;;;2.20;;
79149;SDS011;68563;45.644;13.782;2024-03-23T02:01:19;6.03;;;2.20;;
79149;SDS011;68563;45.644;13.782;2024-03-23T02:03:44;4.07;;;2.17;;
79149;SDS011;68563;45.644;13.782;2024-03-23T02:06:09;3.70;;;2.40;;
79149;SDS011;68563;45.644;13.782;2024-03-23T02:08:35;3.78;;;2.78;;
79149;SDS011;68563;45.644;13.782;2024-03-23T02:11:01;5.45;;;3.00;;
79149;SDS011;68563;45.644;13.782;2024-03-23T02:13:26;5.00;;;2.50;;
79149;SDS011;68563;45.644;13.782;2024-03-23T02:15:52;3.47;;;2.30;;
79149;SDS011;68563;45.644;13.782;2024-03-23T02:18:17;3.60;;;2.38;;
79149;SDS011;68563;45.644;13.782;2024-03-23T02:20:43;3.83;;;2.55;;
79149;SDS011;68563;45.644;13.782;2024-03-23T02:23:14;3.08;;;2.17;;
79149;SDS011;68563;45.644;13.782;2024-03-23T02:25:41;4.97;;;2.60;;
79149;SDS011;68563;45.644;13.782;2024-03-23T02:28:06;4.53;;;2.25;;
79149;SDS011;68563;45.644;13.782;2024-03-23T02:30:32;4.38;;;2.50;;
79149;SDS011;68563;45.644;13.782;2024-03-23T02:32:57;3.60;;;2.40;;
79149;SDS011;68563;45.644;13.782;2024-03-23T02:35:23;4.90;;;2.70;;
79149;SDS011;68563;45.644;13.782;2024-03-23T02:37:48;3.72;;;2.30;;
79149;SDS011;68563;45.644;13.782;2024-03-23T02:40:15;4.25;;;2.40;;
79149;SDS011;68563;45.644;13.782;2024-03-23T02:42:41;7.25;;;2.45;;
79149;SDS011;68563;45.644;13.782;2024-03-23T02:45:06;3.75;;;2.60;;
79149;SDS011;68563;45.644;13.782;2024-03-23T02:47:32;3.83;;;2.30;;
79149;SDS011;68563;45.644;13.782;2024-03-23T02:49:57;3.40;;;2.13;;
79149;SDS011;68563;45.644;13.782;2024-03-23T02:52:23;5.63;;;2.33;;
79149;SDS011;68563;45.644;13.782;2024-03-23T02:54:48;3.03;;;2.20;;
79149;SDS011;68563;45.644;13.782;2024-03-23T02:57:14;3.95;;;2.38;;
79149;SDS011;68563;45.644;13.782;2024-03-23T02:59:40;3.70;;;2.25;;
79149;SDS011;68563;45.644;13.782;2024-03-23T03:02:05;5.75;;;2.25;;
79149;SDS011;68563;45.644;13.782;2024-03-23T03:04:31;2.78;;;2.05;;
79149;SDS011;68563;45.644;13.782;2024-03-23T03:06:57;3.03;;;1.92;;
79149;SDS011;68563;45.644;13.782;2024-03-23T03:09:23;6.03;;;2.13;;
79149;SDS011;68563;45.644;13.782;2024-03-23T03:11:48;4.30;;;2.08;;
79149;SDS011;68563;45.644;13.782;2024-03-23T03:14:13;3.03;;;2.20;;
79149;SDS011;68563;45.644;13.782;2024-03-23T03:16:39;3.75;;;1.95;;
79149;SDS011;68563;45.644;13.782;2024-03-23T03:19:04;3.97;;;2.10;;
79149;SDS011;68563;45.644;13.782;2024-03-23T03:21:31;5.85;;;2.00;;
79149;SDS011;68563;45.644;13.782;2024-03-23T03:23:57;7.78;;;2.55;;
79149;SDS011;68563;45.644;13.782;2024-03-23T03:26:23;3.80;;;2.22;;
79149;SDS011;68563;45.644;13.782;2024-03-23T03:28:49;5.35;;;2.25;;
79149;SDS011;68563;45.644;13.782;2024-03-23T03:31:15;4.75;;;2.20;;
79149;SDS011;68563;45.644;13.782;2024-03-23T03:33:41;4.03;;;2.15;;
79149;SDS011;68563;45.644;13.782;2024-03-23T03:36:07;3.63;;;2.22;;
79149;SDS011;68563;45.644;13.782;2024-03-23T03:38:32;2.78;;;2.00;;
79149;SDS011;68563;45.644;13.782;2024-03-23T03:41:00;4.78;;;2.10;;
79149;SDS011;68563;45.644;13.782;2024-03-23T03:43:25;4.03;;;2.40;;
79149;SDS011;68563;45.644;13.782;2024-03-23T03:45:54;3.72;;;2.25;;
79149;SDS011;68563;45.644;13.782;2024-03-23T03:48:20;3.67;;;2.50;;
79149;SDS011;68563;45.644;13.782;2024-03-23T03:50:46;3.92;;;2.30;;
79149;SDS011;68563;45.644;13.782;2024-03-23T03:53:11;7.07;;;3.30;;
79149;SDS011;68563;45.644;13.782;2024-03-23T03:55:37;4.18;;;2.60;;
79149;SDS011;68563;45.644;13.782;2024-03-23T03:58:02;6.78;;;2.60;;
79149;SDS011;68563;45.644;13.782;2024-03-23T04:00:28;5.13;;;3.08;;
79149;SDS011;68563;45.644;13.782;2024-03-23T04:02:53;5.55;;;2.60;;
79149;SDS011;68563;45.644;13.782;2024-03-23T04:05:19;3.22;;;2.60;;
79149;SDS011;68563;45.644;13.782;2024-03-23T04:07:45;6.50;;;2.70;;
79149;SDS011;68563;45.644;13.782;2024-03-23T04:10:10;3.78;;;2.70;;
79149;SDS011;68563;45.644;13.782;2024-03-23T04:12:36;3.15;;;2.25;;
79149;SDS011;68563;45.644;13.782;2024-03-23T04:15:02;3.67;;;2.45;;
79149;SDS011;68563;45.644;13.782;2024-03-23T04:17:29;2.58;;;1.80;;
79149;SDS011;68563;45.644;13.782;2024-03-23T04:19:57;3.25;;;2.55;;
79149;SDS011;68563;45.644;13.782;2024-03-23T04:22:23;4.15;;;1.95;;
79149;SDS011;68563;45.644;13.782;2024-03-23T04:24:51;2.75;;;2.03;;
79149;SDS011;68563;45.644;13.782;2024-03-23T04:27:18;2.78;;;2.13;;
79149;SDS011;68563;45.644;13.782;2024-03-23T04:29:46;3.35;;;1.92;;
79149;SDS011;68563;45.644;13.782;2024-03-23T04:32:12;3.03;;;2.33;;
79149;SDS011;68563;45.644;13.782;2024-03-23T04:34:39;4.00;;;2.20;;
79149;SDS011;68563;45.644;13.782;2024-03-23T04:37:04;7.93;;;2.53;;
79149;SDS011;68563;45.644;13.782;2024-03-23T04:39:30;4.78;;;1.88;;
79149;SDS011;68563;45.644;13.782;2024-03-23T04:41:55;2.35;;;1.70;;
79149;SDS011;68563;45.644;13.782;2024-03-23T04:44:20;4.75;;;2.10;;
79149;SDS011;68563;45.644;13.782;2024-03-23T04:46:46;4.03;;;2.10;;
79149;SDS011;68563;45.644;13.782;2024-03-23T04:49:11;2.78;;;1.90;;
79149;SDS011;68563;45.644;13.782;2024-03-23T04:51:37;2.50;;;1.90;;
79149;SDS011;68563;45.644;13.782;2024-03-23T04:54:02;5.78;;;2.08;;
79149;SDS011;68563;45.644;13.782;2024-03-23T04:56:29;3.90;;;2.00;;
79149;SDS011;68563;45.644;13.782;2024-03-23T04:58:55;3.03;;;1.67;;
79149;SDS011;68563;45.644;13.782;2024-03-23T05:01:26;2.47;;;1.77;;
79149;SDS011;68563;45.644;13.782;2024-03-23T05:03:51;3.20;;;2.10;;
79149;SDS011;68563;45.644;13.782;2024-03-23T05:06:17;3.10;;;2.00;;
79149;SDS011;68563;45.644;13.782;2024-03-23T05:08:43;3.53;;;1.80;;
79149;SDS011;68563;45.644;13.782;2024-03-23T05:11:08;4.13;;;1.98;;
79149;SDS011;68563;45.644;13.782;2024-03-23T05:13:34;4.35;;;2.10;;
79149;SDS011;68563;45.644;13.782;2024-03-23T05:15:59;3.28;;;2.10;;
79149;SDS011;68563;45.644;13.782;2024-03-23T05:18:25;3.72;;;2.22;;
79149;SDS011;68563;45.644;13.782;2024-03-23T05:20:55;5.25;;;2.35;;
79149;SDS011;68563;45.644;13.782;2024-03-23T05:23:24;4.35;;;2.38;;
79149;SDS011;68563;45.644;13.782;2024-03-23T05:25:50;3.50;;;2.20;;
79149;SDS011;68563;45.644;13.782;2024-03-23T05:28:17;4.25;;;2.50;;
79149;SDS011;68563;45.644;13.782;2024-03-23T05:30:43;3.15;;;2.10;;
79149;SDS011;68563;45.644;13.782;2024-03-23T05:33:08;3.47;;;2.13;;
79149;SDS011;68563;45.644;13.782;2024-03-23T05:35:34;3.35;;;2.40;;
79149;SDS011;68563;45.644;13.782;2024-03-23T05:37:59;3.58;;;2.25;;
79149;SDS011;68563;45.644;13.782;2024-03-23T05:40:27;4.55;;;2.47;;
79149;SDS011;68563;45.644;13.782;2024-03-23T05:42:53;3.60;;;2.22;;
79149;SDS011;68563;45.644;13.782;2024-03-23T05:45:19;3.33;;;2.50;;
79149;SDS011;68563;45.644;13.782;2024-03-23T05:47:44;2.60;;;1.90;;
79149;SDS011;68563;45.644;13.782;2024-03-23T05:50:10;3.85;;;2.60;;
79149;SDS011;68563;45.644;13.782;2024-03-23T05:52:37;3.53;;;2.47;;
79149;SDS011;68563;45.644;13.782;2024-03-23T05:55:04;2.83;;;2.53;;
79149;SDS011;68563;45.644;13.782;2024-03-23T05:57:31;3.47;;;2.33;;
79149;SDS011;68563;45.644;13.782;2024-03-23T05:59:56;3.33;;;2.47;;
79149;SDS011;68563;45.644;13.782;2024-03-23T06:02:22;3.97;;;2.72;;
79149;SDS011;68563;45.644;13.782;2024-03-23T06:04:47;3.42;;;2.60;;
79149;SDS011;68563;45.644;13.782;2024-03-23T06:07:13;4.28;;;2.35;;
79149;SDS011;68563;45.644;13.782;2024-03-23T06:09:42;3.60;;;2.42;;
79149;SDS011;68563;45.644;13.782;2024-03-23T06:12:07;4.72;;;2.55;;
79149;SDS011;68563;45.644;13.782;2024-03-23T06:14:33;3.65;;;2.55;;
79149;SDS011;68563;45.644;13.782;2024-03-23T06:17:00;3.88;;;2.83;;
79149;SDS011;68563;45.644;13.782;2024-03-23T06:19:26;5.70;;;2.92;;
79149;SDS011;68563;45.644;13.782;2024-03-23T06:21:53;3.70;;;2.70;;
79149;SDS011;68563;45.644;13.782;2024-03-23T06:24:19;5.57;;;2.78;;
79149;SDS011;68563;45.644;13.782;2024-03-23T06:26:46;4.82;;;2.65;;
79149;SDS011;68563;45.644;13.782;2024-03-23T06:29:12;6.32;;;2.50;;
79149;SDS011;68563;45.644;13.782;2024-03-23T06:31:37;3.45;;;2.47;;
79149;SDS011;68563;45.644;13.782;2024-03-23T06:34:02;2.60;;;2.28;;
79149;SDS011;68563;45.644;13.782;2024-03-23T06:36:28;2.95;;;2.35;;
79149;SDS011;68563;45.644;13.782;2024-03-23T06:38:55;3.03;;;2.00;;
79149;SDS011;68563;45.644;13.782;2024-03-23T06:41:20;4.07;;;2.30;;
79149;SDS011;68563;45.644;13.782;2024-03-23T06:43:46;3.08;;;2.13;;
79149;SDS011;68563;45.644;13.782;2024-03-23T06:46:11;2.92;;;1.90;;
79149;SDS011;68563;45.644;13.782;2024-03-23T06:48:37;2.42;;;1.73;;
79149;SDS011;68563;45.644;13.782;2024-03-23T06:51:02;4.60;;;2.10;;
79149;SDS011;68563;45.644;13.782;2024-03-23T06:53:28;2.70;;;1.92;;
79149;SDS011;68563;45.644;13.782;2024-03-23T06:55:54;2.85;;;1.90;;
79149;SDS011;68563;45.644;13.782;2024-03-23T06:58:20;3.40;;;1.80;;
79149;SDS011;68563;45.644;13.782;2024-03-23T07:00:47;2.88;;;1.83;;
79149;SDS011;68563;45.644;13.782;2024-03-23T07:03:12;2.95;;;1.80;;
79149;SDS011;68563;45.644;13.782;2024-03-23T07:05:38;2.97;;;1.80;;
79149;SDS011;68563;45.644;13.782;2024-03-23T07:08:03;2.65;;;1.55;;
79149;SDS011;68563;45.644;13.782;2024-03-23T07:10:29;2.58;;;1.80;;
79149;SDS011;68563;45.644;13.782;2024-03-23T07:12:54;3.80;;;2.05;;
79149;SDS011;68563;45.644;13.782;2024-03-23T07:15:20;3.85;;;2.10;;
79149;SDS011;68563;45.644;13.782;2024-03-23T07:17:48;3.13;;;1.60;;
79149;SDS011;68563;45.644;13.782;2024-03-23T07:20:14;3.13;;;1.60;;
79149;SDS011;68563;45.644;13.782;2024-03-23T07:22:39;3.00;;;1.70;;
79149;SDS011;68563;45.644;13.782;2024-03-23T07:25:05;5.75;;;1.70;;
79149;SDS011;68563;45.644;13.782;2024-03-23T07:27:31;3.25;;;1.35;;
79149;SDS011;68563;45.644;13.782;2024-03-23T07:29:57;2.50;;;1.50;;
79149;SDS011;68563;45.644;13.782;2024-03-23T07:32:22;3.03;;;1.40;;
79149;SDS011;68563;45.644;13.782;2024-03-23T07:34:48;4.70;;;1.42;;
79149;SDS011;68563;45.644;13.782;2024-03-23T07:37:13;3.55;;;1.52;;
79149;SDS011;68563;45.644;13.782;2024-03-23T07:39:39;2.67;;;1.42;;
79149;SDS011;68563;45.644;13.782;2024-03-23T07:42:05;2.75;;;1.67;;
79149;SDS011;68563;45.644;13.782;2024-03-23T07:44:31;3.25;;;1.30;;
79149;SDS011;68563;45.644;13.782;2024-03-23T07:46:56;3.95;;;1.60;;
79149;SDS011;68563;45.644;13.782;2024-03-23T07:49:22;3.00;;;1.73;;
79149;SDS011;68563;45.644;13.782;2024-03-23T07:51:47;4.78;;;1.50;;
79149;SDS011;68563;45.644;13.782;2024-03-23T07:54:12;2.35;;;1.52;;
79149;SDS011;68563;45.644;13.782;2024-03-23T07:56:38;4.07;;;1.60;;
79149;SDS011;68563;45.644;13.782;2024-03-23T07:59:03;2.70;;;1.60;;
79149;SDS011;68563;45.644;13.782;2024-03-23T08:01:29;2.17;;;1.50;;
79149;SDS011;68563;45.644;13.782;2024-03-23T08:03:54;3.08;;;1.63;;
79149;SDS011;68563;45.644;13.782;2024-03-23T08:06:20;2.20;;;1.27;;
79149;SDS011;68563;45.644;13.782;2024-03-23T08:08:49;2.40;;;1.65;;
79149;SDS011;68563;45.644;13.782;2024-03-23T08:11:24;2.13;;;1.50;;
79149;SDS011;68563;45.644;13.782;2024-03-23T08:13:56;3.00;;;1.70;;
79149;SDS011;68563;45.644;13.782;2024-03-23T08:16:22;3.05;;;1.70;;
79149;SDS011;68563;45.644;13.782;2024-03-23T08:18:48;2.75;;;1.75;;
79149;SDS011;68563;45.644;13.782;2024-03-23T08:21:16;3.20;;;1.80;;
79149;SDS011;68563;45.644;13.782;2024-03-23T08:23:42;3.72;;;1.90;;
79149;SDS011;68563;45.644;13.782;2024-03-23T08:26:15;5.50;;;1.80;;
79149;SDS011;68563;45.644;13.782;2024-03-23T08:28:41;5.18;;;2.65;;
79149;SDS011;68563;45.644;13.782;2024-03-23T08:31:07;3.60;;;2.00;;
79149;SDS011;68563;45.644;13.782;2024-03-23T08:33:34;3.10;;;2.03;;
79149;SDS011;68563;45.644;13.782;2024-03-23T08:36:01;2.92;;;1.80;;
79149;SDS011;68563;45.644;13.782;2024-03-23T08:38:27;2.85;;;1.90;;
79149;SDS011;68563;45.644;13.782;2024-03-23T08:40:56;3.15;;;1.60;;
79149;SDS011;68563;45.644;13.782;2024-03-23T08:45:48;3.50;;;2.00;;
79149;SDS011;68563;45.644;13.782;2024-03-23T08:48:14;2.75;;;1.83;;
79149;SDS011;68563;45.644;13.782;2024-03-23T08:50:39;3.92;;;2.08;;
79149;SDS011;68563;45.644;13.782;2024-03-23T08:53:04;3.17;;;1.90;;
79149;SDS011;68563;45.644;13.782;2024-03-23T08:55:30;7.13;;;2.40;;
79149;SDS011;68563;45.644;13.782;2024-03-23T08:57:55;3.72;;;2.22;;
79149;SDS011;68563;45.644;13.782;2024-03-23T09:00:21;3.60;;;2.03;;
79149;SDS011;68563;45.644;13.782;2024-03-23T09:02:49;3.00;;;2.08;;
79149;SDS011;68563;45.644;13.782;2024-03-23T09:05:15;2.88;;;2.22;;
79149;SDS011;68563;45.644;13.782;2024-03-23T09:07:40;5.65;;;2.42;;
79149;SDS011;68563;45.644;13.782;2024-03-23T09:10:06;3.75;;;2.38;;
79149;SDS011;68563;45.644;13.782;2024-03-23T09:12:32;4.95;;;2.10;;
79149;SDS011;68563;45.644;13.782;2024-03-23T09:14:58;2.83;;;2.10;;
79149;SDS011;68563;45.644;13.782;2024-03-23T09:17:23;6.78;;;2.45;;
79149;SDS011;68563;45.644;13.782;2024-03-23T09:19:49;3.53;;;2.58;;
79149;SDS011;68563;45.644;13.782;2024-03-23T09:22:14;3.78;;;2.42;;
79149;SDS011;68563;45.644;13.782;2024-03-23T09:24:41;4.53;;;2.75;;
79149;SDS011;68563;45.644;13.782;2024-03-23T09:27:06;3.55;;;2.17;;
79149;SDS011;68563;45.644;13.782;2024-03-23T09:29:31;3.83;;;2.30;;
79149;SDS011;68563;45.644;13.782;2024-03-23T09:31:57;6.53;;;2.30;;
79149;SDS011;68563;45.644;13.782;2024-03-23T09:34:22;3.95;;;2.33;;
79149;SDS011;68563;45.644;13.782;2024-03-23T09:36:50;4.70;;;2.50;;
79149;SDS011;68563;45.644;13.782;2024-03-23T09:39:16;3.70;;;2.35;;
79149;SDS011;68563;45.644;13.782;2024-03-23T09:41:42;6.10;;;2.30;;
79149;SDS011;68563;45.644;13.782;2024-03-23T09:44:08;3.92;;;2.50;;
79149;SDS011;68563;45.644;13.782;2024-03-23T09:46:34;4.25;;;2.38;;
79149;SDS011;68563;45.644;13.782;2024-03-23T09:49:01;3.97;;;2.60;;
79149;SDS011;68563;45.644;13.782;2024-03-23T09:51:29;3.15;;;2.28;;
79149;SDS011;68563;45.644;13.782;2024-03-23T09:53:55;3.55;;;2.50;;
79149;SDS011;68563;45.644;13.782;2024-03-23T09:56:22;2.63;;;1.95;;
79149;SDS011;68563;45.644;13.782;2024-03-23T09:58:48;3.50;;;2.55;;
79149;SDS011;68563;45.644;13.782;2024-03-23T10:01:14;3.03;;;2.25;;
79149;SDS011;68563;45.644;13.782;2024-03-23T10:03:43;5.03;;;2.45;;
79149;SDS011;68563;45.644;13.782;2024-03-23T10:06:32;4.70;;;2.53;;
79149;SDS011;68563;45.644;13.782;2024-03-23T10:08:57;3.88;;;2.58;;
79149;SDS011;68563;45.644;13.782;2024-03-23T10:11:22;4.28;;;2.47;;
79149;SDS011;68563;45.644;13.782;2024-03-23T10:13:50;2.90;;;2.33;;
79149;SDS011;68563;45.644;13.782;2024-03-23T10:16:21;3.75;;;2.55;;
79149;SDS011;68563;45.644;13.782;2024-03-23T10:18:48;3.80;;;2.92;;
79149;SDS011;68563;45.644;13.782;2024-03-23T10:21:14;3.80;;;2.13;;
79149;SDS011;68563;45.644;13.782;2024-03-23T10:23:41;2.72;;;2.15;;
79149;SDS011;68563;45.644;13.782;2024-03-23T10:26:15;4.35;;;2.22;;
79149;SDS011;68563;45.644;13.782;2024-03-23T10:28:50;4.40;;;2.13;;
79149;SDS011;68563;45.644;13.782;2024-03-23T10:31:27;4.28;;;2.42;;
79149;SDS011;68563;45.644;13.782;2024-03-23T10:36:24;3.65;;;2.50;;
79149;SDS011;68563;45.644;13.782;2024-03-23T10:38:53;10.27;;;5.18;;
79149;SDS011;68563;45.644;13.782;2024-03-23T10:41:19;9.43;;;3.45;;
79149;SDS011;68563;45.644;13.782;2024-03-23T10:43:46;8.40;;;4.43;;
79149;SDS011;68563;45.644;13.782;2024-03-23T10:46:13;7.97;;;4.22;;
79149;SDS011;68563;45.644;13.782;2024-03-23T10:48:39;7.40;;;5.10;;
79149;SDS011;68563;45.644;13.782;2024-03-23T10:51:08;8.32;;;5.35;;
79149;SDS011;68563;45.644;13.782;2024-03-23T10:53:34;9.25;;;6.15;;
79149;SDS011;68563;45.644;13.782;2024-03-23T10:56:00;10.75;;;6.82;;
79149;SDS011;68563;45.644;13.782;2024-03-23T10:58:33;8.90;;;6.55;;
79149;SDS011;68563;45.644;13.782;2024-03-23T11:01:00;11.88;;;7.25;;
79149;SDS011;68563;45.644;13.782;2024-03-23T11:03:34;11.57;;;7.18;;
79149;SDS011;68563;45.644;13.782;2024-03-23T11:06:02;14.45;;;7.68;;
79149;SDS011;68563;45.644;13.782;2024-03-23T11:08:38;12.68;;;7.72;;
79149;SDS011;68563;45.644;13.782;2024-03-23T11:11:26;13.85;;;7.45;;
79149;SDS011;68563;45.644;13.782;2024-03-23T11:13:52;12.85;;;8.07;;
79149;SDS011;68563;45.644;13.782;2024-03-23T11:16:28;12.43;;;7.82;;
79149;SDS011;68563;45.644;13.782;2024-03-23T11:21:53;13.07;;;8.15;;
79149;SDS011;68563;45.644;13.782;2024-03-23T11:24:20;13.90;;;8.50;;
79149;SDS011;68563;45.644;13.782;2024-03-23T11:26:47;13.05;;;8.70;;
79149;SDS011;68563;45.644;13.782;2024-03-23T11:29:14;14.25;;;9.93;;
79149;SDS011;68563;45.644;13.782;2024-03-23T11:34:13;14.75;;;9.70;;
79149;SDS011;68563;45.644;13.782;2024-03-23T11:36:40;14.02;;;9.52;;
79149;SDS011;68563;45.644;13.782;2024-03-23T11:39:15;15.13;;;9.45;;
79149;SDS011;68563;45.644;13.782;2024-03-23T11:41:52;14.38;;;9.80;;
79149;SDS011;68563;45.644;13.782;2024-03-23T11:44:19;13.77;;;9.57;;
79149;SDS011;68563;45.644;13.782;2024-03-23T11:46:47;15.13;;;9.93;;
79149;SDS011;68563;45.644;13.782;2024-03-23T11:49:20;15.05;;;10.02;;
79149;SDS011;68563;45.644;13.782;2024-03-23T11:51:49;14.82;;;10.20;;
79149;SDS011;68563;45.644;13.782;2024-03-23T11:54:15;15.80;;;10.15;;
79149;SDS011;68563;45.644;13.782;2024-03-23T11:56:53;16.45;;;9.88;;
79149;SDS011;68563;45.644;13.782;2024-03-23T11:59:38;17.25;;;10.15;;
79149;SDS011;68563;45.644;13.782;2024-03-23T12:02:11;15.38;;;9.48;;
79149;SDS011;68563;45.644;13.782;2024-03-23T12:04:41;19.48;;;11.70;;
79149;SDS011;68563;45.644;13.782;2024-03-23T12:07:10;16.05;;;10.93;;
79149;SDS011;68563;45.644;13.782;2024-03-23T12:09:45;19.38;;;10.20;;
79149;SDS011;68563;45.644;13.782;2024-03-23T12:12:17;20.48;;;11.52;;
79149;SDS011;68563;45.644;13.782;2024-03-23T12:15:01;18.58;;;10.73;;
79149;SDS011;68563;45.644;13.782;2024-03-23T12:17:31;16.65;;;10.60;;
79149;SDS011;68563;45.644;13.782;2024-03-23T12:19:56;18.45;;;11.35;;
79149;SDS011;68563;45.644;13.782;2024-03-23T12:22:23;18.92;;;11.13;;
79149;SDS011;68563;45.644;13.782;2024-03-23T12:24:49;17.30;;;10.82;;
79149;SDS011;68563;45.644;13.782;2024-03-23T12:27:14;18.45;;;10.07;;
79149;SDS011;68563;45.644;13.782;2024-03-23T12:29:40;16.38;;;11.18;;
79149;SDS011;68563;45.644;13.782;2024-03-23T12:32:11;15.90;;;10.27;;
79149;SDS011;68563;45.644;13.782;2024-03-23T12:34:36;18.00;;;9.68;;
79149;SDS011;68563;45.644;13.782;2024-03-23T12:37:02;14.98;;;9.70;;
79149;SDS011;68563;45.644;13.782;2024-03-23T12:39:27;15.45;;;10.13;;
79149;SDS011;68563;45.644;13.782;2024-03-23T12:41:53;18.63;;;10.18;;
79149;SDS011;68563;45.644;13.782;2024-03-23T12:44:18;14.80;;;9.82;;
79149;SDS011;68563;45.644;13.782;2024-03-23T12:46:44;16.33;;;10.10;;
79149;SDS011;68563;45.644;13.782;2024-03-23T12:49:10;13.55;;;9.25;;
79149;SDS011;68563;45.644;13.782;2024-03-23T12:51:36;13.38;;;9.32;;
79149;SDS011;68563;45.644;13.782;2024-03-23T12:54:01;14.52;;;10.30;;
79149;SDS011;68563;45.644;13.782;2024-03-23T12:56:27;15.00;;;9.38;;
79149;SDS011;68563;45.644;13.782;2024-03-23T12:58:55;16.95;;;8.38;;
79149;SDS011;68563;45.644;13.782;2024-03-23T13:01:26;14.32;;;9.00;;
79149;SDS011;68563;45.644;13.782;2024-03-23T13:03:52;14.10;;;8.90;;
79149;SDS011;68563;45.644;13.782;2024-03-23T13:06:18;14.13;;;9.02;;
79149;SDS011;68563;45.644;13.782;2024-03-23T13:08:44;14.65;;;8.82;;
79149;SDS011;68563;45.644;13.782;2024-03-23T13:11:10;16.50;;;9.57;;
79149;SDS011;68563;45.644;13.782;2024-03-23T13:13:36;13.35;;;9.15;;
79149;SDS011;68563;45.644;13.782;2024-03-23T13:16:03;17.40;;;9.50;;
79149;SDS011;68563;45.644;13.782;2024-03-23T13:18:30;15.85;;;9.73;;
79149;SDS011;68563;45.644;13.782;2024-03-23T13:20:56;17.63;;;10.60;;
79149;SDS011;68563;45.644;13.782;2024-03-23T13:23:21;14.60;;;9.25;;
79149;SDS011;68563;45.644;13.782;2024-03-23T13:25:54;15.85;;;9.70;;
79149;SDS011;68563;45.644;13.782;2024-03-23T13:28:21;13.13;;;8.80;;
79149;SDS011;68563;45.644;13.782;2024-03-23T13:31:05;13.90;;;9.20;;
79149;SDS011;68563;45.644;13.782;2024-03-23T13:33:30;13.52;;;9.40;;
79149;SDS011;68563;45.644;13.782;2024-03-23T13:35:57;13.18;;;9.18;;
79149;SDS011;68563;45.644;13.782;2024-03-23T13:38:23;14.20;;;8.95;;
79149;SDS011;68563;45.644;13.782;2024-03-23T13:40:52;13.23;;;9.10;;
79149;SDS011;68563;45.644;13.782;2024-03-23T13:43:22;13.75;;;7.93;;
79149;SDS011;68563;45.644;13.782;2024-03-23T13:45:48;13.68;;;7.78;;
79149;SDS011;68563;45.644;13.782;2024-03-23T13:48:17;12.43;;;6.53;;
79149;SDS011;68563;45.644;13.782;2024-03-23T13:50:44;12.60;;;7.13;;
79149;SDS011;68563;45.644;13.782;2024-03-23T13:53:09;12.35;;;7.45;;
79149;SDS011;68563;45.644;13.782;2024-03-23T13:55:34;12.65;;;7.15;;
79149;SDS011;68563;45.644;13.782;2024-03-23T13:58:00;11.80;;;7.70;;
79149;SDS011;68563;45.644;13.782;2024-03-23T14:00:26;10.95;;;7.43;;
79149;SDS011;68563;45.644;13.782;2024-03-23T14:02:52;9.70;;;6.97;;
79149;SDS011;68563;45.644;13.782;2024-03-23T14:05:17;10.35;;;6.90;;
79149;SDS011;68563;45.644;13.782;2024-03-23T14:07:42;10.82;;;7.13;;
79149;SDS011;68563;45.644;13.782;2024-03-23T14:10:08;11.43;;;6.70;;
79149;SDS011;68563;45.644;13.782;2024-03-23T14:12:36;9.98;;;6.70;;
79149;SDS011;68563;45.644;13.782;2024-03-23T14:15:05;10.57;;;6.93;;
79149;SDS011;68563;45.644;13.782;2024-03-23T14:17:31;11.48;;;7.13;;
79149;SDS011;68563;45.644;13.782;2024-03-23T14:19:57;13.25;;;8.45;;
79149;SDS011;68563;45.644;13.782;2024-03-23T14:22:26;17.55;;;8.27;;
79149;SDS011;68563;45.644;13.782;2024-03-23T14:24:54;12.50;;;7.93;;
79149;SDS011;68563;45.644;13.782;2024-03-23T14:27:19;13.45;;;8.25;;
79149;SDS011;68563;45.644;13.782;2024-03-23T14:29:46;12.25;;;7.65;;
79149;SDS011;68563;45.644;13.782;2024-03-23T14:32:12;10.40;;;6.38;;
79149;SDS011;68563;45.644;13.782;2024-03-23T14:34:38;9.05;;;5.85;;
79149;SDS011;68563;45.644;13.782;2024-03-23T14:37:03;11.88;;;5.55;;
79149;SDS011;68563;45.644;13.782;2024-03-23T14:39:30;8.38;;;5.80;;
79149;SDS011;68563;45.644;13.782;2024-03-23T14:41:56;9.95;;;5.13;;
79149;SDS011;68563;45.644;13.782;2024-03-23T14:44:21;8.82;;;4.85;;
79149;SDS011;68563;45.644;13.782;2024-03-23T14:46:47;10.77;;;4.90;;
79149;SDS011;68563;45.644;13.782;2024-03-23T14:49:15;8.30;;;4.72;;
79149;SDS011;68563;45.644;13.782;2024-03-23T14:51:44;8.65;;;5.15;;
79149;SDS011;68563;45.644;13.782;2024-03-23T14:54:09;10.00;;;5.22;;
79149;SDS011;68563;45.644;13.782;2024-03-23T14:56:35;8.30;;;4.85;;
79149;SDS011;68563;45.644;13.782;2024-03-23T14:59:01;9.00;;;5.22;;
79149;SDS011;68563;45.644;13.782;2024-03-23T15:01:31;7.82;;;3.88;;
79149;SDS011;68563;45.644;13.782;2024-03-23T15:03:56;8.80;;;4.75;;
79149;SDS011;68563;45.644;13.782;2024-03-23T15:06:21;6.82;;;4.75;;
79149;SDS011;68563;45.644;13.782;2024-03-23T15:08:47;7.80;;;4.53;;
79149;SDS011;68563;45.644;13.782;2024-03-23T15:11:12;8.25;;;5.32;;
79149;SDS011;68563;45.644;13.782;2024-03-23T15:13:38;57.72;;;7.70;;
79149;SDS011;68563;45.644;13.782;2024-03-23T15:16:04;20.10;;;6.18;;
79149;SDS011;68563;45.644;13.782;2024-03-23T15:18:30;8.02;;;4.57;;
79149;SDS011;68563;45.644;13.782;2024-03-23T15:21:01;8.38;;;3.95;;
79149;SDS011;68563;45.644;13.782;2024-03-23T15:23:31;5.53;;;3.70;;
79149;SDS011;68563;45.644;13.782;2024-03-23T15:26:00;5.68;;;3.55;;
79149;SDS011;68563;45.644;13.782;2024-03-23T15:28:27;6.70;;;4.32;;
79149;SDS011;68563;45.644;13.782;2024-03-23T15:31:13;9.05;;;3.90;;
79149;SDS011;68563;45.644;13.782;2024-03-23T15:33:39;22.85;;;5.30;;